createdAt,value
2023-05-15T00:01:51.885Z,20.50
2023-05-15T00:04:54.527Z,20.77
2023-05-15T00:07:57.409Z,22.77
2023-05-15T00:11:01.963Z,28.25
2023-05-15T00:14:04.969Z,21.20
2023-05-15T00:17:08.338Z,20.02
2023-05-15T00:20:11.584Z,22.67
2023-05-15T00:23:14.274Z,20.48
2023-05-15T00:26:16.966Z,19.95
2023-05-15T00:29:19.651Z,19.60
2023-05-15T00:32:22.326Z,22.55
2023-05-15T00:35:25.288Z,23.47
2023-05-15T00:38:28.114Z,24.77
2023-05-15T00:41:32.714Z,24.58
2023-05-15T00:44:36.007Z,26.27
2023-05-15T00:47:40.571Z,21.77
2023-05-15T00:50:44.048Z,22.23
2023-05-15T00:53:46.620Z,26.90
2023-05-15T00:56:49.467Z,23.83
2023-05-15T00:59:53.002Z,24.45
2023-05-15T01:02:55.668Z,21.95
2023-05-15T01:05:58.350Z,26.87
2023-05-15T01:09:04.475Z,21.33
2023-05-15T01:12:07.869Z,22.85
2023-05-15T01:15:11.150Z,21.50
2023-05-15T01:18:13.773Z,24.88
2023-05-15T01:21:28.401Z,21.93
2023-05-15T01:24:59.641Z,24.25
2023-05-15T01:28:06.395Z,24.20
2023-05-15T01:31:15.116Z,22.20
2023-05-15T01:34:19.795Z,22.13
2023-05-15T01:37:25.413Z,20.27
2023-05-15T01:40:28.829Z,21.17
2023-05-15T01:43:33.260Z,22.52
2023-05-15T01:46:39.777Z,20.45
2023-05-15T01:49:45.326Z,23.70
2023-05-15T01:52:54.118Z,19.30
2023-05-15T01:55:57.381Z,19.52
2023-05-15T01:59:00.741Z,19.00
2023-05-15T02:02:07.661Z,17.73
2023-05-15T02:05:11.320Z,21.45
2023-05-15T02:08:15.841Z,19.90
2023-05-15T02:11:19.156Z,21.60
2023-05-15T02:14:22.795Z,20.58
2023-05-15T02:17:25.668Z,21.23
2023-05-15T02:20:28.478Z,20.80
2023-05-15T02:23:31.098Z,22.47
2023-05-15T02:26:58.152Z,21.77
2023-05-15T02:30:26.762Z,22.23
2023-05-15T02:33:41.171Z,21.05
2023-05-15T02:36:47.159Z,25.02
2023-05-15T02:39:54.657Z,24.60
2023-05-15T02:42:57.919Z,25.50
2023-05-15T02:46:00.620Z,25.55
2023-05-15T02:49:04.040Z,23.85
2023-05-15T02:52:07.067Z,26.85
2023-05-15T02:55:10.461Z,31.90
2023-05-15T02:58:13.319Z,29.92
2023-05-15T03:01:16.432Z,26.35
2023-05-15T03:04:19.221Z,24.00
2023-05-15T03:07:21.793Z,23.15
2023-05-15T03:10:24.524Z,22.23
2023-05-15T03:13:27.300Z,24.90
2023-05-15T03:16:29.964Z,24.27
2023-05-15T03:19:32.853Z,23.75
2023-05-15T03:22:35.422Z,24.20
2023-05-15T03:25:38.059Z,21.90
2023-05-15T03:28:42.188Z,23.42
2023-05-15T03:31:44.992Z,20.77
2023-05-15T03:34:47.662Z,20.63
2023-05-15T03:37:50.222Z,18.42
2023-05-15T03:40:52.802Z,18.00
2023-05-15T03:43:55.391Z,17.95
2023-05-15T03:46:58.052Z,19.85
2023-05-15T03:50:00.790Z,17.75
2023-05-15T03:53:03.526Z,16.08
2023-05-15T03:56:06.539Z,14.10
2023-05-15T03:59:09.096Z,18.00
2023-05-15T04:02:11.739Z,17.45
2023-05-15T04:05:14.364Z,18.23
2023-05-15T04:08:17.185Z,21.98
2023-05-15T04:11:19.830Z,19.73
2023-05-15T04:14:22.526Z,22.08
2023-05-15T04:17:25.222Z,23.73
2023-05-15T04:20:27.914Z,19.13
2023-05-15T04:23:30.466Z,18.88
2023-05-15T04:26:33.558Z,18.60
2023-05-15T04:29:36.184Z,18.10
2023-05-15T04:32:39.687Z,15.10
2023-05-15T04:35:42.347Z,15.68
2023-05-15T04:38:44.939Z,16.23
2023-05-15T04:41:47.601Z,14.13
2023-05-15T04:44:50.247Z,14.20
2023-05-15T04:47:53.011Z,14.00
2023-05-15T04:50:55.632Z,12.32
2023-05-15T04:53:58.280Z,14.52
2023-05-15T04:57:01.420Z,12.00
2023-05-15T05:00:12.293Z,13.25
2023-05-15T05:03:15.210Z,13.13
2023-05-15T05:06:17.982Z,14.27
2023-05-15T05:09:20.757Z,10.15
2023-05-15T05:12:23.297Z,12.37
2023-05-15T05:15:26.116Z,8.32
2023-05-15T05:18:30.813Z,8.82
2023-05-15T05:21:34.214Z,10.80
2023-05-15T05:24:37.722Z,9.07
2023-05-15T05:27:40.464Z,8.67
2023-05-15T05:30:46.263Z,8.63
2023-05-15T05:33:52.988Z,8.77
2023-05-15T05:36:55.691Z,10.27
2023-05-15T05:40:01.342Z,9.52
2023-05-15T05:43:04.093Z,9.23
2023-05-15T05:46:06.633Z,7.35
2023-05-15T05:49:09.310Z,6.85
2023-05-15T05:52:12.661Z,7.57
2023-05-15T05:55:15.976Z,7.03
2023-05-15T05:58:25.437Z,6.67
2023-05-15T06:01:29.372Z,7.82
2023-05-15T06:04:34.132Z,8.70
2023-05-15T06:07:40.374Z,6.85
2023-05-15T06:10:43.625Z,7.78
2023-05-15T06:13:49.545Z,8.00
2023-05-15T06:16:56.004Z,8.40
2023-05-15T06:20:01.545Z,9.18
2023-05-15T06:23:09.270Z,9.25
2023-05-15T06:26:12.019Z,8.88
2023-05-15T06:29:17.670Z,8.10
2023-05-15T06:32:20.248Z,7.40
2023-05-15T06:35:25.988Z,7.63
2023-05-15T06:38:29.181Z,7.68
2023-05-15T06:41:32.988Z,6.43
2023-05-15T06:44:36.246Z,8.67
2023-05-15T06:47:39.577Z,7.38
2023-05-15T06:50:42.207Z,6.95
2023-05-15T06:53:44.818Z,7.90
2023-05-15T06:56:48.103Z,7.78
2023-05-15T07:00:04.513Z,6.53
2023-05-15T07:12:26.020Z,6.80
2023-05-15T07:15:31.805Z,6.05
2023-05-15T07:18:34.672Z,7.13
2023-05-15T07:21:40.234Z,6.13
2023-05-15T07:24:43.711Z,7.43
2023-05-15T07:28:23.332Z,6.22
2023-05-15T07:31:31.353Z,7.00
2023-05-15T07:34:34.041Z,6.97
2023-05-15T07:37:36.668Z,4.97
2023-05-15T07:40:39.866Z,5.68
2023-05-15T07:57:36.476Z,6.43
2023-05-15T08:00:41.558Z,5.72
2023-05-15T08:03:44.422Z,5.78
2023-05-15T08:06:50.093Z,5.55
2023-05-15T08:10:09.707Z,4.30
2023-05-15T08:13:17.772Z,4.97
2023-05-15T08:16:20.787Z,5.10
2023-05-15T08:19:24.171Z,4.65
2023-05-15T08:22:40.789Z,4.90
2023-05-15T08:25:43.518Z,5.70
2023-05-15T08:28:49.204Z,4.55
2023-05-15T08:31:52.154Z,5.50
2023-05-15T08:34:54.921Z,4.35
2023-05-15T08:38:00.738Z,6.60
2023-05-15T08:41:08.606Z,6.40
2023-05-15T08:44:13.695Z,6.18
2023-05-15T08:47:20.783Z,4.80
2023-05-15T08:50:24.072Z,4.95
2023-05-15T08:53:30.510Z,4.47
2023-05-15T08:56:33.390Z,5.20
2023-05-15T08:59:38.220Z,4.72
2023-05-15T09:02:44.448Z,4.20
2023-05-15T09:05:48.333Z,4.35
2023-05-15T09:08:52.933Z,6.63
2023-05-15T09:11:57.216Z,5.03
2023-05-15T09:15:22.580Z,5.40
2023-05-15T09:18:25.769Z,6.05
2023-05-15T09:21:31.792Z,5.95
2023-05-15T09:24:38.151Z,6.55
2023-05-15T09:27:44.204Z,5.10
2023-05-15T09:30:47.485Z,5.35
2023-05-15T09:34:02.538Z,4.82
2023-05-15T09:37:07.892Z,4.40
2023-05-15T09:40:11.872Z,4.15
2023-05-15T09:43:14.459Z,4.50
2023-05-15T09:46:17.851Z,3.05
2023-05-15T09:49:23.454Z,2.83
2023-05-15T09:52:30.132Z,3.65
2023-05-15T09:55:36.428Z,3.00
2023-05-15T09:59:34.926Z,4.10
2023-05-15T10:07:27.393Z,2.85
2023-05-15T10:10:58.012Z,2.90
2023-05-15T10:14:02.177Z,3.20
2023-05-15T10:22:02.985Z,3.65
2023-05-15T10:30:49.202Z,5.68
2023-05-15T10:34:01.997Z,3.42
2023-05-15T10:37:14.072Z,2.90
2023-05-15T10:40:30.554Z,2.78
2023-05-15T10:43:38.043Z,3.22
2023-05-15T10:46:41.578Z,3.30
2023-05-15T10:49:44.828Z,3.30
2023-05-15T10:52:53.269Z,3.43
2023-05-15T10:55:56.201Z,2.80
2023-05-15T10:59:05.266Z,3.72
2023-05-15T11:02:25.848Z,3.45
2023-05-15T11:05:52.085Z,4.43
2023-05-15T11:09:15.186Z,2.87
2023-05-15T11:12:18.215Z,3.20
2023-05-15T11:15:21.205Z,4.15
2023-05-15T11:18:23.995Z,4.85
2023-05-15T11:21:46.915Z,2.75
2023-05-15T11:25:06.213Z,2.83
2023-05-15T11:28:36.732Z,4.25
2023-05-15T11:31:42.386Z,6.10
2023-05-15T11:34:45.213Z,4.70
2023-05-15T11:37:54.240Z,3.13
2023-05-15T11:41:03.261Z,4.03
2023-05-15T11:44:09.370Z,3.50
2023-05-15T11:47:12.609Z,2.70
2023-05-15T11:50:37.768Z,3.60
2023-05-15T11:54:27.465Z,8.32
2023-05-15T11:57:30.527Z,3.30
2023-05-15T12:00:36.163Z,4.18
2023-05-15T12:03:42.193Z,3.33
2023-05-15T12:06:47.839Z,4.28
2023-05-15T12:10:26.097Z,5.10
2023-05-15T12:13:33.206Z,2.77
2023-05-15T12:16:43.566Z,4.25
2023-05-15T12:19:53.398Z,3.85
2023-05-15T12:23:27.068Z,3.03
2023-05-15T12:36:19.543Z,3.72
2023-05-15T12:39:54.190Z,2.50
2023-05-15T12:59:28.103Z,2.83
2023-05-15T13:03:19.189Z,2.30
2023-05-15T13:06:23.920Z,2.63
2023-05-15T13:09:29.197Z,2.67
2023-05-15T13:12:45.610Z,3.20
2023-05-15T13:15:49.100Z,3.22
2023-05-15T13:18:52.736Z,4.38
2023-05-15T13:21:57.666Z,3.10
2023-05-15T13:25:01.093Z,2.70
2023-05-15T13:28:06.187Z,2.85
2023-05-15T13:31:08.910Z,4.18
2023-05-15T13:34:11.691Z,2.80
2023-05-15T13:37:18.823Z,2.88
2023-05-15T13:40:22.047Z,2.70
2023-05-15T13:44:15.317Z,2.80
2023-05-15T13:47:18.654Z,2.72
2023-05-15T13:50:21.668Z,4.25
2023-05-15T13:53:24.622Z,3.90
2023-05-15T13:56:27.657Z,2.70
2023-05-15T13:59:30.594Z,3.15
2023-05-15T14:02:34.250Z,6.53
2023-05-15T14:05:37.859Z,3.10
2023-05-15T14:08:40.714Z,4.03
2023-05-15T14:11:43.542Z,2.87
2023-05-15T14:14:47.232Z,2.67
2023-05-15T14:17:50.772Z,2.65
2023-05-15T14:20:57.959Z,3.85
2023-05-15T14:24:00.846Z,3.65
2023-05-15T14:27:04.345Z,3.53
2023-05-15T14:30:07.823Z,2.85
2023-05-15T14:33:10.790Z,2.50
2023-05-15T14:36:13.798Z,2.47
2023-05-15T14:39:17.032Z,2.97
2023-05-15T14:42:21.354Z,3.57
2023-05-15T14:45:24.230Z,6.20
2023-05-15T14:48:27.277Z,2.88
2023-05-15T14:51:30.202Z,2.50
2023-05-15T14:54:33.148Z,3.85
2023-05-15T14:57:36.178Z,3.10
2023-05-15T15:00:39.016Z,3.10
2023-05-15T15:03:44.132Z,3.95
2023-05-15T15:06:50.132Z,3.28
2023-05-15T15:09:56.021Z,5.07
2023-05-15T15:12:59.337Z,3.40
2023-05-15T15:16:02.423Z,2.97
2023-05-15T15:19:05.363Z,3.67
2023-05-15T15:22:08.299Z,3.17
2023-05-15T15:25:11.832Z,4.00
2023-05-15T15:28:14.836Z,2.70
2023-05-15T15:31:17.859Z,2.85
2023-05-15T15:34:20.702Z,2.83
2023-05-15T15:37:23.771Z,3.25
2023-05-15T15:40:29.621Z,3.22
2023-05-15T15:43:32.678Z,2.93
2023-05-15T15:46:35.718Z,3.22
2023-05-15T15:49:38.768Z,3.33
2023-05-15T15:52:41.612Z,3.25
2023-05-15T15:55:46.366Z,4.40
2023-05-15T15:58:50.015Z,4.30
2023-05-15T16:01:52.807Z,2.50
2023-05-15T16:04:55.858Z,3.00
2023-05-15T16:07:58.690Z,3.38
2023-05-15T16:11:01.625Z,3.50
2023-05-15T16:14:07.414Z,2.83
2023-05-15T16:17:10.311Z,3.72
2023-05-15T16:20:18.475Z,3.97
2023-05-15T16:23:21.897Z,9.98
2023-05-15T16:26:24.851Z,3.13
2023-05-15T16:29:28.985Z,5.10
2023-05-15T16:32:32.012Z,5.00
2023-05-15T16:35:36.958Z,6.53
2023-05-15T16:38:39.929Z,4.40
2023-05-15T16:41:42.900Z,3.30
2023-05-15T16:44:46.165Z,4.03
2023-05-15T16:47:49.483Z,3.75
2023-05-15T16:50:53.037Z,5.32
2023-05-15T16:53:56.827Z,23.52
2023-05-15T16:56:59.664Z,3.60
2023-05-15T17:00:02.458Z,3.97
2023-05-15T17:03:06.463Z,4.15
2023-05-15T17:06:13.570Z,4.80
2023-05-15T17:09:16.464Z,4.22
2023-05-15T17:12:19.298Z,3.20
2023-05-15T17:15:25.514Z,4.83
2023-05-15T17:18:28.799Z,6.90
2023-05-15T17:21:32.096Z,6.72
2023-05-15T17:24:49.389Z,7.13
2023-05-15T17:27:56.559Z,4.07
2023-05-15T17:30:59.318Z,4.83
2023-05-15T17:34:02.296Z,5.40
2023-05-15T17:37:05.154Z,4.78
2023-05-15T17:40:11.369Z,3.72
2023-05-15T17:43:14.346Z,6.22
2023-05-15T17:46:17.225Z,6.53
2023-05-15T17:49:20.090Z,5.32
2023-05-15T17:52:23.020Z,5.05
2023-05-15T17:55:26.172Z,3.80
2023-05-15T17:58:29.112Z,4.55
2023-05-15T18:01:32.630Z,3.27
2023-05-15T18:04:35.613Z,5.43
2023-05-15T18:07:38.447Z,4.30
2023-05-15T18:10:44.237Z,8.25
2023-05-15T18:13:47.010Z,10.05
2023-05-15T18:16:53.051Z,5.87
2023-05-15T18:19:56.309Z,4.65
2023-05-15T18:22:59.124Z,3.53
2023-05-15T18:26:02.058Z,3.17
2023-05-15T18:29:04.899Z,5.43
2023-05-15T18:32:07.982Z,7.47
2023-05-15T18:35:10.940Z,11.07
2023-05-15T18:38:14.071Z,8.10
2023-05-15T18:41:17.201Z,4.75
2023-05-15T18:44:20.078Z,4.57
2023-05-15T18:47:23.075Z,5.57
2023-05-15T18:50:26.164Z,4.18
2023-05-15T18:53:29.066Z,5.22
2023-05-15T18:56:31.853Z,3.80
2023-05-15T18:59:34.970Z,4.88
2023-05-15T19:02:40.368Z,4.23
2023-05-15T19:05:43.367Z,5.78
2023-05-15T19:08:50.348Z,4.38
2023-05-15T19:11:53.108Z,6.72
2023-05-15T19:14:56.049Z,5.35
2023-05-15T19:18:00.232Z,8.37
2023-05-15T19:21:04.870Z,7.35
2023-05-15T19:24:10.653Z,5.80
2023-05-15T19:27:13.907Z,6.70
2023-05-15T19:30:16.830Z,4.30
2023-05-15T19:33:20.196Z,3.60
2023-05-15T19:36:26.327Z,10.07
2023-05-15T19:39:32.875Z,4.55
2023-05-15T19:42:35.789Z,5.15
2023-05-15T19:45:41.755Z,5.38
2023-05-15T19:48:47.268Z,6.50
2023-05-15T19:51:50.201Z,8.15
2023-05-15T19:54:53.119Z,11.48
2023-05-15T19:57:56.989Z,6.40
2023-05-15T20:01:03.037Z,15.15
2023-05-15T20:04:05.913Z,11.30
2023-05-15T20:07:08.810Z,9.30
2023-05-15T20:10:12.352Z,9.95
2023-05-15T20:13:15.261Z,9.80
2023-05-15T20:16:25.098Z,7.70
2023-05-15T20:19:31.607Z,10.13
2023-05-15T20:22:34.895Z,8.40
2023-05-15T20:25:40.688Z,11.85
2023-05-15T20:28:46.355Z,8.73
2023-05-15T20:31:52.479Z,9.02
2023-05-15T20:34:58.554Z,15.63
2023-05-15T20:38:08.615Z,17.92
2023-05-15T20:41:11.659Z,17.83
2023-05-15T20:44:14.514Z,18.23
2023-05-15T20:47:17.886Z,18.33
2023-05-15T20:50:21.898Z,14.17
2023-05-15T20:53:24.911Z,15.60
2023-05-15T20:56:30.840Z,16.25
2023-05-15T20:59:34.109Z,13.85
2023-05-15T21:02:37.254Z,10.35
2023-05-15T21:05:40.905Z,7.63
2023-05-15T21:08:46.553Z,11.35
2023-05-15T21:11:50.367Z,7.07
2023-05-15T21:14:54.036Z,6.75
2023-05-15T21:17:57.053Z,8.88
2023-05-15T21:21:00.372Z,8.23
2023-05-15T21:24:04.096Z,10.25
2023-05-15T21:27:07.047Z,9.77
2023-05-15T21:30:10.330Z,10.38
2023-05-15T21:33:13.254Z,7.25
2023-05-15T21:36:18.521Z,8.10
2023-05-15T21:39:23.980Z,8.05
2023-05-15T21:42:26.828Z,7.43
2023-05-15T21:45:30.065Z,6.00
2023-05-15T21:48:32.931Z,7.47
2023-05-15T21:51:36.347Z,5.67
2023-05-15T21:54:39.510Z,7.95
2023-05-15T21:57:45.697Z,7.88
2023-05-15T22:00:48.637Z,7.68
2023-05-15T22:03:53.736Z,10.13
2023-05-15T22:06:56.693Z,13.63
2023-05-15T22:09:59.705Z,10.45
2023-05-15T22:13:03.556Z,8.45
2023-05-15T22:16:06.641Z,8.75
2023-05-15T22:19:18.506Z,8.57
2023-05-15T22:22:31.694Z,8.60
2023-05-15T22:25:34.630Z,10.00
2023-05-15T22:28:37.421Z,7.53
2023-05-15T22:31:40.309Z,9.68
2023-05-15T22:34:43.143Z,8.75
2023-05-15T22:37:49.625Z,11.53
2023-05-15T22:40:55.163Z,10.60
2023-05-15T22:43:58.010Z,9.85
2023-05-15T22:47:00.816Z,8.02
2023-05-15T22:50:03.952Z,6.55
2023-05-15T22:53:06.943Z,8.57
2023-05-15T22:56:09.819Z,7.75
2023-05-15T22:59:12.695Z,6.72
2023-05-15T23:02:18.802Z,8.38
2023-05-15T23:05:22.075Z,6.57
2023-05-15T23:08:25.232Z,7.37
2023-05-15T23:11:28.476Z,7.03
2023-05-15T23:14:31.345Z,7.03
2023-05-15T23:17:34.244Z,8.27
2023-05-15T23:20:38.046Z,5.38
2023-05-15T23:23:43.064Z,7.97
2023-05-15T23:26:47.126Z,6.35
2023-05-15T23:29:49.963Z,5.10
2023-05-15T23:32:55.447Z,5.93
2023-05-15T23:35:58.415Z,7.00
2023-05-15T23:39:01.260Z,7.13
2023-05-15T23:42:04.183Z,9.18
2023-05-15T23:45:10.170Z,6.10
2023-05-15T23:48:13.251Z,5.45
2023-05-15T23:51:17.137Z,6.22
2023-05-15T23:54:21.003Z,6.17
2023-05-15T23:57:23.854Z,9.02
